createdAt,value
2023-03-05T00:01:37.370Z,31.00
2023-03-05T00:05:04.513Z,26.50
2023-03-05T00:08:32.673Z,23.50
2023-03-05T00:11:59.980Z,17.60
2023-03-05T00:15:27.115Z,22.10
2023-03-05T00:18:54.723Z,16.10
2023-03-05T00:22:21.808Z,16.10
2023-03-05T00:25:49.310Z,17.90
2023-03-05T00:29:19.559Z,18.40
2023-03-05T00:32:46.864Z,20.50
2023-03-05T00:36:14.548Z,15.40
2023-03-05T00:39:41.737Z,15.90
2023-03-05T00:43:09.691Z,21.70
2023-03-05T00:46:37.442Z,22.90
2023-03-05T00:50:06.290Z,24.00
2023-03-05T00:53:34.137Z,22.70
2023-03-05T00:57:01.396Z,25.20
2023-03-05T01:00:28.925Z,24.40
2023-03-05T01:03:57.567Z,24.30
2023-03-05T01:07:24.934Z,20.40
2023-03-05T01:10:52.124Z,21.10
2023-03-05T01:14:20.048Z,31.40
2023-03-05T01:17:47.745Z,28.50
2023-03-05T01:21:15.032Z,37.00
2023-03-05T01:24:42.230Z,35.10
2023-03-05T01:28:09.740Z,28.40
2023-03-05T01:31:37.064Z,25.90
2023-03-05T01:35:06.887Z,26.10
2023-03-05T01:38:34.150Z,23.80
2023-03-05T01:42:01.298Z,28.90
2023-03-05T01:45:32.057Z,19.40
2023-03-05T01:49:16.875Z,31.40
2023-03-05T01:52:47.662Z,23.10
2023-03-05T01:56:14.983Z,23.40
2023-03-05T01:59:44.381Z,21.40
2023-03-05T02:03:13.684Z,25.10
2023-03-05T02:06:42.846Z,23.30
2023-03-05T02:13:44.899Z,24.10
2023-03-05T02:17:13.369Z,18.00
2023-03-05T02:20:49.256Z,20.60
2023-03-05T02:24:19.203Z,15.10
2023-03-05T02:27:51.736Z,19.90
2023-03-05T02:31:21.778Z,19.10
2023-03-05T02:34:49.250Z,16.80
2023-03-05T02:38:18.332Z,16.50
2023-03-05T02:41:45.529Z,18.20
2023-03-05T02:45:14.277Z,23.80
2023-03-05T02:48:41.573Z,18.10
2023-03-05T02:52:11.887Z,18.30
2023-03-05T02:55:39.185Z,23.20
2023-03-05T02:59:06.721Z,17.50
2023-03-05T03:02:34.494Z,16.00
2023-03-05T03:06:01.826Z,16.20
2023-03-05T03:09:29.187Z,14.80
2023-03-05T03:12:56.392Z,14.50
2023-03-05T03:16:24.016Z,16.40
2023-03-05T03:19:51.822Z,16.40
2023-03-05T03:23:18.959Z,13.80
2023-03-05T03:26:46.838Z,14.80
2023-03-05T03:30:16.437Z,14.00
2023-03-05T03:33:44.093Z,16.80
2023-03-05T03:37:11.570Z,17.90
2023-03-05T03:40:39.666Z,20.20
2023-03-05T03:44:08.868Z,14.70
2023-03-05T03:47:36.195Z,19.50
2023-03-05T03:51:07.877Z,17.50
2023-03-05T03:54:35.417Z,19.20
2023-03-05T03:58:03.400Z,17.00
2023-03-05T04:01:30.814Z,16.90
2023-03-05T04:04:58.431Z,13.30
2023-03-05T04:08:25.983Z,15.00
2023-03-05T04:11:53.284Z,17.50
2023-03-05T04:15:20.934Z,12.10
2023-03-05T04:18:48.251Z,17.20
2023-03-05T04:22:17.104Z,15.20
2023-03-05T04:25:44.175Z,15.10
2023-03-05T04:29:11.484Z,18.30
2023-03-05T04:32:38.856Z,18.00
2023-03-05T04:36:06.933Z,18.20
2023-03-05T04:39:34.231Z,17.80
2023-03-05T04:43:01.675Z,14.70
2023-03-05T04:46:29.018Z,18.60
2023-03-05T04:49:56.495Z,15.30
2023-03-05T04:53:23.861Z,15.90
2023-03-05T04:56:51.134Z,17.80
2023-03-05T05:00:20.449Z,18.90
2023-03-05T05:03:48.021Z,13.90
2023-03-05T05:07:15.216Z,17.10
2023-03-05T05:10:42.341Z,19.40
2023-03-05T05:14:09.602Z,20.30
2023-03-05T05:17:37.303Z,21.90
2023-03-05T05:21:07.843Z,16.50
2023-03-05T05:24:34.960Z,16.80
2023-03-05T05:28:02.163Z,15.90
2023-03-05T05:31:29.443Z,14.30
2023-03-05T05:34:59.225Z,17.30
2023-03-05T05:38:26.436Z,16.80
2023-03-05T05:41:54.970Z,12.90
2023-03-05T05:45:22.349Z,17.80
2023-03-05T05:48:49.882Z,14.10
2023-03-05T05:52:17.132Z,17.40
2023-03-05T05:55:44.421Z,16.10
2023-03-05T05:59:13.130Z,16.00
2023-03-05T06:02:42.465Z,12.00
2023-03-05T06:06:13.568Z,19.50
2023-03-05T06:09:40.744Z,12.70
2023-03-05T06:13:07.856Z,13.50
2023-03-05T06:16:35.141Z,12.60
2023-03-05T06:20:02.518Z,7.60
2023-03-05T06:23:30.400Z,7.10
2023-03-05T06:26:57.489Z,7.80
2023-03-05T06:30:25.097Z,9.30
2023-03-05T06:33:53.180Z,12.10
2023-03-05T06:37:20.444Z,12.30
2023-03-05T06:40:47.810Z,15.20
2023-03-05T06:44:14.961Z,13.90
2023-03-05T06:47:42.010Z,6.80
2023-03-05T06:51:16.753Z,14.10
2023-03-05T06:54:43.829Z,7.30
2023-03-05T06:58:11.391Z,10.10
2023-03-05T07:01:38.605Z,8.20
2023-03-05T07:05:06.549Z,12.00
2023-03-05T07:08:33.782Z,6.50
2023-03-05T07:12:00.915Z,7.20
2023-03-05T07:15:28.225Z,10.20
2023-03-05T07:18:58.482Z,6.90
2023-03-05T07:22:25.729Z,5.80
2023-03-05T07:25:52.862Z,10.50
2023-03-05T07:29:19.903Z,8.90
2023-03-05T07:32:47.443Z,7.50
2023-03-05T07:36:15.277Z,6.90
2023-03-05T07:39:42.357Z,11.20
2023-03-05T07:43:09.505Z,8.20
2023-03-05T07:46:37.162Z,10.30
2023-03-05T07:50:04.763Z,12.80
2023-03-05T07:53:31.847Z,16.70
2023-03-05T07:56:59.029Z,14.20
2023-03-05T08:00:26.693Z,14.70
2023-03-05T08:03:54.072Z,16.00
2023-03-05T08:07:21.208Z,18.40
2023-03-05T08:10:48.545Z,47.20
2023-03-05T08:14:15.672Z,34.70
2023-03-05T08:17:43.049Z,21.90
2023-03-05T08:21:16.455Z,19.70
2023-03-05T08:24:43.615Z,84.90
2023-03-05T08:28:10.777Z,25.80
2023-03-05T08:31:39.141Z,17.30
2023-03-05T08:35:07.742Z,25.80
2023-03-05T08:38:35.065Z,17.70
2023-03-05T08:42:02.395Z,12.20
2023-03-05T08:45:29.628Z,11.10
2023-03-05T08:48:56.752Z,29.20
2023-03-05T08:52:24.246Z,26.70
2023-03-05T08:55:57.985Z,22.10
2023-03-05T08:59:25.189Z,23.30
2023-03-05T09:02:52.426Z,22.80
2023-03-05T09:06:19.742Z,13.10
2023-03-05T09:09:47.014Z,11.20
2023-03-05T09:13:14.200Z,16.00
2023-03-05T09:16:41.632Z,9.00
2023-03-05T09:20:12.609Z,18.80
2023-03-05T09:23:40.198Z,16.40
2023-03-05T09:27:08.233Z,14.10
2023-03-05T09:30:35.767Z,12.30
2023-03-05T09:34:03.182Z,14.50
2023-03-05T09:37:30.593Z,9.60
2023-03-05T09:41:06.566Z,10.70
2023-03-05T09:44:42.807Z,15.10
2023-03-05T09:48:18.062Z,45.50
2023-03-05T09:51:47.834Z,33.80
2023-03-05T09:55:21.517Z,55.20
2023-03-05T09:58:56.004Z,34.30
2023-03-05T10:02:27.336Z,27.00
2023-03-05T10:06:05.115Z,12.80
2023-03-05T10:09:45.172Z,7.50
2023-03-05T10:13:23.418Z,11.80
2023-03-05T10:17:04.088Z,9.00
2023-03-05T10:20:56.745Z,11.70
2023-03-05T10:24:44.455Z,15.40
2023-03-05T10:28:17.984Z,12.90
2023-03-05T10:32:04.486Z,18.60
2023-03-05T10:35:46.464Z,14.80
2023-03-05T10:39:51.035Z,22.50
2023-03-05T10:43:27.213Z,15.40
2023-03-05T10:46:58.332Z,16.60
2023-03-05T10:50:29.520Z,15.40
2023-03-05T10:53:59.587Z,12.80
2023-03-05T10:57:29.196Z,10.50
2023-03-05T11:01:05.839Z,11.00
2023-03-05T11:04:41.447Z,10.90
2023-03-05T11:08:26.381Z,10.00
2023-03-05T11:12:15.284Z,10.80
2023-03-05T11:15:42.382Z,11.20
2023-03-05T11:19:20.678Z,10.30
2023-03-05T11:23:05.469Z,14.30
2023-03-05T11:26:32.664Z,13.90
2023-03-05T11:30:00.726Z,9.80
2023-03-05T11:33:28.670Z,11.50
2023-03-05T11:37:08.115Z,9.70
2023-03-05T11:40:36.975Z,9.40
2023-03-05T11:44:13.339Z,7.70
2023-03-05T11:47:48.152Z,17.50
2023-03-05T11:51:22.347Z,24.70
2023-03-05T11:55:00.663Z,19.00
2023-03-05T11:58:36.581Z,19.10
2023-03-05T12:02:04.526Z,24.40
2023-03-05T12:05:33.496Z,26.40
2023-03-05T12:09:04.844Z,12.50
2023-03-05T12:12:45.460Z,8.40
2023-03-05T12:16:27.350Z,7.00
2023-03-05T12:20:00.872Z,9.40
2023-03-05T12:23:28.344Z,10.00
2023-03-05T12:27:09.339Z,6.20
2023-03-05T12:30:58.451Z,6.90
2023-03-05T12:34:50.406Z,8.50
2023-03-05T12:38:32.579Z,7.60
2023-03-05T12:41:59.585Z,9.00
2023-03-05T12:45:33.220Z,12.20
2023-03-05T12:49:00.585Z,20.80
2023-03-05T12:52:31.034Z,39.20
2023-03-05T12:56:03.995Z,52.30
2023-03-05T12:59:41.414Z,31.90
2023-03-05T13:03:16.211Z,18.90
2023-03-05T13:06:43.737Z,13.90
2023-03-05T13:10:25.865Z,34.30
2023-03-05T13:13:54.336Z,389.80
2023-03-05T13:17:35.150Z,304.50
2023-03-05T13:21:07.819Z,389.20
2023-03-05T13:24:34.940Z,160.30
2023-03-05T13:28:11.103Z,67.70
2023-03-05T13:31:43.226Z,101.40
2023-03-05T13:35:16.532Z,61.30
2023-03-05T13:38:47.956Z,42.00
2023-03-05T13:42:21.420Z,18.30
2023-03-05T13:45:56.476Z,10.30
2023-03-05T13:49:30.037Z,12.20
2023-03-05T13:52:59.337Z,11.20
2023-03-05T13:56:26.603Z,6.60
2023-03-05T13:59:56.125Z,35.70
2023-03-05T14:03:28.217Z,30.50
2023-03-05T14:07:00.298Z,11.20
2023-03-05T14:10:34.752Z,10.70
2023-03-05T14:14:08.083Z,11.00
2023-03-05T14:17:40.351Z,10.40
2023-03-05T14:21:10.216Z,13.10
2023-03-05T14:24:38.648Z,22.20
2023-03-05T14:28:07.754Z,34.30
2023-03-05T14:31:46.969Z,16.90
2023-03-05T14:35:22.798Z,31.10
2023-03-05T14:38:51.616Z,21.10
2023-03-05T14:42:33.314Z,19.60
2023-03-05T14:46:00.412Z,60.00
2023-03-05T14:49:27.636Z,96.20
2023-03-05T14:52:58.808Z,30.70
2023-03-05T14:56:28.935Z,26.70
2023-03-05T14:59:56.704Z,16.80
2023-03-05T15:03:25.760Z,13.00
2023-03-05T15:06:53.473Z,14.80
2023-03-05T15:10:22.123Z,15.70
2023-03-05T15:13:50.493Z,11.40
2023-03-05T15:17:23.205Z,22.90
2023-03-05T15:20:52.913Z,17.30
2023-03-05T15:27:45.924Z,10.30
2023-03-05T15:31:13.493Z,14.70
2023-03-05T15:34:40.555Z,16.70
2023-03-05T15:38:08.079Z,18.60
2023-03-05T15:41:35.266Z,13.70
2023-03-05T15:45:02.670Z,14.20
2023-03-05T15:48:29.764Z,14.00
2023-03-05T15:51:57.029Z,12.80
2023-03-05T15:55:24.644Z,12.90
2023-03-05T15:58:53.493Z,6.90
2023-03-05T16:02:20.728Z,7.50
2023-03-05T16:05:48.397Z,22.60
2023-03-05T16:09:17.299Z,10.70
2023-03-05T16:12:46.069Z,7.80
2023-03-05T16:16:14.074Z,6.50
2023-03-05T16:19:44.252Z,8.70
2023-03-05T16:23:11.657Z,9.00
2023-03-05T16:26:40.518Z,8.50
2023-03-05T16:30:10.365Z,13.30
2023-03-05T16:33:37.556Z,27.20
2023-03-05T16:37:06.887Z,30.10
2023-03-05T16:41:05.921Z,32.80
2023-03-05T16:44:26.733Z,40.40
2023-03-05T16:47:54.136Z,24.30
2023-03-05T16:51:21.582Z,19.70
2023-03-05T16:54:49.405Z,17.10
2023-03-05T16:58:16.545Z,25.00
2023-03-05T17:01:44.873Z,33.50
2023-03-05T17:05:12.846Z,25.20
2023-03-05T17:08:40.232Z,11.80
2023-03-05T17:12:08.655Z,10.00
2023-03-05T17:15:36.076Z,9.50
2023-03-05T17:19:03.326Z,14.80
2023-03-05T17:22:30.376Z,10.10
2023-03-05T17:25:57.953Z,11.40
2023-03-05T17:29:25.627Z,11.90
2023-03-05T17:32:55.180Z,9.70
2023-03-05T17:39:48.546Z,41.60
2023-03-05T17:43:15.959Z,32.40
2023-03-05T17:46:43.070Z,26.30
2023-03-05T17:50:13.758Z,21.00
2023-03-05T17:53:41.546Z,21.40
2023-03-05T17:57:08.727Z,18.50
2023-03-05T18:00:37.009Z,18.30
2023-03-05T18:04:04.260Z,16.50
2023-03-05T18:07:31.446Z,18.70
2023-03-05T18:10:58.698Z,18.10
2023-03-05T18:14:26.265Z,16.30
2023-03-05T18:17:54.249Z,16.20
2023-03-05T18:21:25.148Z,15.80
2023-03-05T18:24:52.678Z,17.60
2023-03-05T18:28:19.904Z,16.00
2023-03-05T18:31:47.272Z,15.90
2023-03-05T18:35:15.406Z,22.90
2023-03-05T18:38:42.634Z,18.20
2023-03-05T18:42:15.076Z,25.90
2023-03-05T18:45:42.439Z,20.00
2023-03-05T18:49:10.238Z,24.70
2023-03-05T18:52:37.571Z,31.70
2023-03-05T18:56:05.014Z,51.70
2023-03-05T18:59:32.176Z,62.40
2023-03-05T19:03:21.808Z,74.50
2023-03-05T19:06:50.061Z,52.80
2023-03-05T19:10:18.392Z,58.40
2023-03-05T19:13:49.149Z,61.50
2023-03-05T19:17:17.003Z,74.90
2023-03-05T19:20:54.471Z,47.20
2023-03-05T19:24:22.675Z,35.90
2023-03-05T19:27:50.268Z,35.60
2023-03-05T19:31:17.792Z,63.70
2023-03-05T19:34:46.082Z,55.20
2023-03-05T19:38:13.775Z,77.50
2023-03-05T19:41:41.475Z,60.20
2023-03-05T19:45:10.761Z,39.60
2023-03-05T19:48:39.396Z,35.40
2023-03-05T19:52:07.344Z,33.80
2023-03-05T19:55:34.986Z,61.00
2023-03-05T19:59:02.668Z,66.50
2023-03-05T20:02:30.284Z,47.30
2023-03-05T20:05:57.655Z,38.90
2023-03-05T20:09:25.354Z,47.00
2023-03-05T20:12:53.339Z,64.30
2023-03-05T20:16:22.873Z,54.30
2023-03-05T20:19:50.464Z,55.70
2023-03-05T20:23:17.970Z,55.40
2023-03-05T20:26:47.184Z,45.90
2023-03-05T20:30:18.048Z,44.70
2023-03-05T20:33:46.397Z,46.20
2023-03-05T20:37:14.158Z,40.90
2023-03-05T20:40:41.434Z,52.20
2023-03-05T20:44:11.341Z,67.00
2023-03-05T20:47:41.068Z,71.90
2023-03-05T20:54:41.405Z,49.00
2023-03-05T20:58:09.204Z,52.80
2023-03-05T21:01:39.183Z,41.10
2023-03-05T21:05:08.138Z,41.80
2023-03-05T21:08:35.762Z,37.20
2023-03-05T21:12:03.813Z,29.40
2023-03-05T21:15:33.082Z,33.70
2023-03-05T21:19:00.331Z,30.50
2023-03-05T21:22:28.066Z,29.50
2023-03-05T21:25:55.854Z,41.80
2023-03-05T21:29:23.682Z,44.00
2023-03-05T21:32:51.425Z,41.10
2023-03-05T21:36:19.705Z,52.00
2023-03-05T21:39:47.424Z,49.70
2023-03-05T21:43:16.232Z,45.60
2023-03-05T21:46:43.679Z,43.40
2023-03-05T21:50:13.725Z,46.70
2023-03-05T21:53:40.805Z,41.30
2023-03-05T21:57:08.893Z,42.00
2023-03-05T22:00:36.202Z,40.80
2023-03-05T22:04:03.372Z,37.40
2023-03-05T22:07:31.427Z,40.20
2023-03-05T22:10:58.960Z,38.80
2023-03-05T22:14:26.476Z,35.80
2023-03-05T22:17:53.548Z,43.10
2023-03-05T22:21:23.746Z,48.20
2023-03-05T22:24:50.767Z,44.90
2023-03-05T22:28:17.855Z,38.10
2023-03-05T22:31:45.597Z,34.00
2023-03-05T22:35:15.934Z,34.50
2023-03-05T22:38:43.928Z,37.20
2023-03-05T22:42:11.313Z,30.00
2023-03-05T22:45:38.792Z,39.10
2023-03-05T22:49:05.983Z,31.80
2023-03-05T22:52:33.172Z,35.10
2023-03-05T22:56:00.552Z,35.40
2023-03-05T22:59:29.386Z,34.90
2023-03-05T23:02:56.862Z,33.60
2023-03-05T23:06:24.579Z,36.30
2023-03-05T23:09:57.209Z,38.90
2023-03-05T23:13:24.519Z,32.80
2023-03-05T23:16:51.692Z,34.60
2023-03-05T23:20:20.934Z,37.60
2023-03-05T23:23:48.398Z,47.70
2023-03-05T23:27:18.826Z,47.70
2023-03-05T23:30:46.298Z,43.20
2023-03-05T23:34:13.649Z,51.80
2023-03-05T23:37:41.290Z,43.50
2023-03-05T23:41:10.901Z,54.50
2023-03-05T23:44:38.159Z,48.40
2023-03-05T23:48:05.669Z,58.90
2023-03-05T23:51:33.098Z,52.40
2023-03-05T23:55:00.831Z,64.70
2023-03-05T23:58:28.055Z,57.80
